Latest Weather Observations for Georgetown Airport

IDQ60801

Issued at 5:32 pm EST Wednesday 27 July 2016 (issued every 30 minutes, with the page automatically refreshed every 10 minutes)

About weather observations | Map of weather stations | Latest weather observations for QLD | Other Formats
Station Details ID: 030124 Name: GEORGETOWN AIRPORT Lat: -18.30 Lon: 143.53 Height: 301.77 m
Data from the previous 72 hours. | See also: Recent months at Georgetown Airport
Date/Time
EST
Temp
°C
App
Temp
°C
Dew
Point
°C
Rel
Hum
%
Delta-T
°C
Wind Press
QNH
hPa
Press
MSL
hPa
Rain since
9am
mm
Dir  Spd
km/h
Gust
km/h
Spd
kts
Gust
kts
27/05:30pm 27.9 25.8 11.0 35 9.7 SE 13 20 7 11 1015.8 - 0.0
27/05:00pm 28.6 27.0 11.6 34 9.9 ESE 11 17 6 9 1015.4 - 0.0
27/04:30pm 29.1 27.1 11.6 33 10.2 SE 13 24 7 13 1015.3 - 0.0
27/04:00pm 29.3 27.8 11.8 34 10.3 SE 11 20 6 11 1015.2 - 0.0
27/03:30pm 29.1 26.6 11.2 33 10.4 S 15 28 8 15 1015.1 - 0.0
27/03:00pm 29.2 27.3 11.7 34 10.3 SE 13 19 7 10 1015.2 1014.2 0.0
27/02:30pm 29.5 27.8 12.4 35 10.2 ESE 13 24 7 13 1015.5 - 0.0
27/02:00pm 28.9 26.9 11.5 34 10.2 SSE 13 26 7 14 1015.9 - 0.0
27/01:30pm 28.5 25.8 11.6 35 9.9 ESE 17 24 9 13 1016.2 - 0.0
27/01:00pm 28.4 25.8 10.6 33 10.2 ESE 15 28 8 15 1016.6 - 0.0
27/12:30pm 27.9 24.6 11.5 36 9.5 E 20 28 11 15 1017.0 - 0.0
27/12:00pm 27.8 25.5 11.8 37 9.3 ESE 15 26 8 14 1017.3 1016.4 0.0
27/11:30am 27.3 24.2 11.7 37 9.1 E 19 32 10 17 1017.6 - 0.0
27/11:00am 27.3 24.9 12.5 40 8.7 ESE 17 28 9 15 1018.0 - 0.0
27/10:30am 26.1 24.3 13.2 44 7.6 E 15 26 8 14 1018.2 - 0.0
27/10:00am 24.9 23.8 13.1 48 6.9 ESE 11 19 6 10 1018.4 - 0.0
27/09:30am 24.1 22.4 13.6 52 6.2 E 15 26 8 14 1018.5 - 0.0
27/09:00am 22.7 20.8 12.9 54 5.7 ESE 15 24 8 13 1018.3 1017.3 0.0
27/08:30am 21.7 21.0 13.1 58 5.0 ESE 9 13 5 7 1018.2 - 0.0
27/08:00am 20.1 20.0 13.8 67 3.7 SE 7 11 4 6 1017.8 - 0.0
27/07:30am 16.9 17.6 12.2 74 2.6 CALM 0 2 0 1 1017.6 - 0.0
27/07:00am 16.1 14.9 11.7 75 2.4 S 9 11 5 6 1017.4 - 0.0
27/06:30am 16.2 14.9 11.2 72 2.7 SSW 9 11 5 6 1017.2 - 0.0
27/06:00am 16.3 14.9 11.0 71 2.9 SSW 9 11 5 6 1017.0 1016.0 0.0
27/05:30am 17.1 16.1 10.9 67 3.4 S 7 9 4 5 1016.9 - 0.0
27/05:00am 17.8 16.8 10.9 64 3.8 S 7 11 4 6 1016.8 - 0.0
27/04:30am 18.4 16.6 11.0 62 4.1 S 11 19 6 10 1016.5 - 0.0
27/04:00am 18.1 17.2 11.4 65 3.7 S 7 11 4 6 1016.6 - 0.0
27/03:30am 18.3 17.1 11.6 65 3.7 S 9 11 5 6 1016.6 - 0.0
27/03:00am 18.1 17.3 11.7 66 3.6 S 7 11 4 6 1016.5 1015.4 0.0
27/02:30am 18.3 17.4 11.4 64 3.8 S 7 9 4 5 1016.4 - 0.0
27/02:00am 18.9 18.0 11.5 62 4.1 S 7 11 4 6 1016.6 - 0.0
27/01:30am 19.6 18.3 11.4 59 4.6 S 9 13 5 7 1016.9 - 0.0
27/01:00am 20.3 18.7 11.5 57 4.9 S 11 17 6 9 1016.9 - 0.0
27/12:30am 20.7 19.1 11.6 56 5.1 S 11 15 6 8 1016.9 - 0.0
27/12:00am 20.9 19.4 11.8 56 5.1 S 11 17 6 9 1016.8 1015.8 0.0
 
Date/Time
EST
Temp
°C
App
Temp
°C
Dew
Point
°C
Rel
Hum
%
Delta-T
°C
Wind Press
QNH
hPa
Press
MSL
hPa
Rain since
9am
mm
Dir  Spd
km/h
Gust
km/h
Spd
kts
Gust
kts
26/11:30pm 20.9 20.0 11.5 55 5.3 S 7 9 4 5 1016.9 - 0.0
26/11:00pm 21.6 20.5 11.9 54 5.5 S 9 11 5 6 1017.0 - 0.0
26/10:30pm 21.1 20.2 12.5 58 4.9 SSW 9 11 5 6 1016.8 - 0.0
26/10:00pm 21.6 20.2 13.5 60 4.7 SSW 13 20 7 11 1016.6 - 0.0
26/09:30pm 19.2 20.4 13.8 71 3.1 CALM 0 0 0 0 1016.2 - 0.0
26/09:00pm 19.8 21.3 14.6 72 3.1 CALM 0 0 0 0 1016.3 1015.3 0.0
26/08:30pm 21.0 21.2 14.2 65 4.0 SE 6 7 3 4 1016.2 - 0.0
26/08:00pm 22.0 22.7 14.6 63 4.4 ESE 4 7 2 4 1016.0 - 0.0
26/07:30pm 23.6 23.4 12.9 51 6.2 SE 6 9 3 5 1015.6 - 0.0
26/07:00pm 23.6 23.2 12.9 51 6.2 SE 7 9 4 5 1015.3 - 0.0
26/06:30pm 25.0 24.2 11.2 42 7.9 SSE 6 6 3 3 1014.9 - 0.0
26/06:00pm 26.9 26.0 10.6 36 9.3 S 6 7 3 4 1014.6 1013.5 0.0
26/05:30pm 27.8 26.5 11.4 36 9.5 SSE 9 15 5 8 1014.3 - 0.0
26/05:00pm 28.1 27.6 12.0 36 9.4 SSE 6 13 3 7 1014.0 - 0.0
26/04:30pm 28.9 28.4 12.8 37 9.6 E 7 11 4 6 1013.8 - 0.0
26/04:00pm 28.4 27.2 11.5 35 9.8 ESE 9 17 5 9 1013.7 - 0.0
26/03:30pm 28.8 27.0 12.2 35 9.8 ESE 13 20 7 11 1013.8 - 0.0
26/03:00pm 28.5 27.2 12.4 37 9.5 SE 11 17 6 9 1014.0 1013.1 0.0
26/02:30pm 28.4 27.0 12.3 37 9.5 E 11 19 6 10 1014.5 - 0.0
26/02:00pm 28.3 27.4 12.6 38 9.3 ENE 9 22 5 12 1014.7 - 0.0
26/01:30pm 28.0 25.5 13.5 41 8.7 ENE 19 26 10 14 1015.2 - 0.0
26/01:00pm 28.1 26.9 14.0 42 8.5 E 13 20 7 11 1015.6 - 0.0
26/12:30pm 27.4 25.7 12.6 40 8.7 SE 13 19 7 10 1016.1 - 0.0
26/12:00pm 27.1 25.2 13.1 42 8.3 E 15 26 8 14 1016.7 1015.7 0.0
26/11:30am 26.8 23.6 13.2 43 8.1 NE 22 32 12 17 1017.1 - 0.0
26/11:00am 26.4 22.8 13.2 44 7.8 ENE 24 33 13 18 1017.3 - 0.0
26/10:30am 25.1 23.2 13.0 47 7.1 E 15 26 8 14 1017.6 - 0.0
26/10:00am 24.7 22.0 13.0 48 6.9 E 19 26 10 14 1018.0 - 0.0
26/09:30am 24.3 22.4 12.9 49 6.7 E 15 20 8 11 1017.8 - 0.0
26/09:00am 22.9 21.1 12.2 51 6.1 E 13 20 7 11 1017.7 1016.8 0.0
26/08:30am 21.8 20.3 11.8 53 5.7 E 11 17 6 9 1017.6 - 0.0
26/08:00am 20.7 19.8 11.3 55 5.3 ESE 7 13 4 7 1017.5 - 0.0
26/07:30am 19.5 18.1 10.8 57 4.8 ESE 9 15 5 8 1017.2 - 0.0
26/07:00am 17.9 16.6 10.0 60 4.3 SE 7 11 4 6 1016.8 - 0.0
26/06:30am 18.7 17.0 10.0 57 4.7 E 9 13 5 7 1016.4 - 0.0
26/06:00am 19.5 17.1 10.2 55 5.1 E 13 20 7 11 1016.2 1015.2 0.0
26/05:30am 19.5 17.5 10.2 55 5.1 E 11 19 6 10 1016.1 - 0.0
26/05:00am 19.6 17.8 10.9 57 4.8 E 11 20 6 11 1015.9 - 0.0
26/04:30am 19.0 17.7 11.3 61 4.3 E 9 13 5 7 1015.7 - 0.0
26/04:00am 19.9 18.3 11.7 59 4.6 E 11 15 6 8 1015.7 - 0.0
26/03:30am 20.4 18.1 11.9 58 4.8 ESE 15 20 8 11 1015.6 - 0.0
26/03:00am 20.5 19.6 12.7 61 4.5 ESE 9 17 5 9 1015.6 1014.6 0.0
26/02:30am 20.9 19.7 12.8 60 4.7 E 11 17 6 9 1015.8 - 0.0
26/02:00am 21.4 19.8 12.8 58 5.0 E 13 19 7 10 1015.9 - 0.0
26/01:30am 21.5 20.0 13.2 59 4.8 E 13 20 7 11 1016.1 - 0.0
26/01:00am 21.5 20.4 13.2 59 4.8 E 11 20 6 11 1016.2 - 0.0
26/12:30am 21.7 20.7 13.3 59 4.9 E 11 17 6 9 1016.4 - 0.0
26/12:00am 20.9 20.4 12.8 60 4.7 ESE 7 11 4 6 1016.5 1015.5 0.0
 
Date/Time
EST
Temp
°C
App
Temp
°C
Dew
Point
°C
Rel
Hum
%
Delta-T
°C
Wind Press
QNH
hPa
Press
MSL
hPa
Rain since
9am
mm
Dir  Spd
km/h
Gust
km/h
Spd
kts
Gust
kts
25/11:30pm 20.8 20.3 12.8 60 4.6 ESE 7 11 4 6 1016.4 - 0.0
25/11:00pm 19.1 19.9 12.4 65 3.8 CALM 0 6 0 3 1016.4 - 0.0
25/10:30pm 20.4 20.9 12.9 62 4.3 E 2 7 1 4 1016.3 - 0.0
25/10:00pm 21.8 21.1 12.1 54 5.5 SE 7 9 4 5 1016.2 - 0.0
25/09:30pm 22.4 21.4 12.4 53 5.8 ESE 9 13 5 7 1016.1 - 0.0
25/09:00pm 23.0 22.0 12.3 51 6.2 ESE 9 13 5 7 1016.1 1015.1 0.0
25/08:30pm 23.4 22.4 12.4 50 6.4 SE 9 11 5 6 1015.8 - 0.0
25/08:00pm 24.0 23.3 12.0 47 6.9 SE 7 11 4 6 1015.6 - 0.0
25/07:30pm 24.5 23.4 12.1 46 7.2 SE 9 13 5 7 1015.3 - 0.0
25/07:00pm 25.2 24.1 12.1 44 7.6 SSE 9 11 5 6 1015.0 - 0.0
25/06:30pm 26.0 24.8 11.7 41 8.3 SSE 9 11 5 6 1014.7 - 0.0
25/06:00pm 27.2 26.0 11.7 38 9.0 SSE 9 13 5 7 1014.5 1013.4 0.0
25/05:30pm 28.4 27.2 11.5 35 9.8 SE 9 15 5 8 1014.1 - 0.0
25/05:00pm 29.1 27.4 11.2 33 10.4 ESE 11 17 6 9 1013.9 - 0.0
25/04:30pm 29.8 27.9 11.8 33 10.6 ESE 13 20 7 11 1013.8 - 0.0
25/04:00pm 29.8 28.3 11.8 33 10.6 ENE 11 20 6 11 1013.7 - 0.0
25/03:30pm 29.5 27.1 11.5 33 10.5 ESE 15 24 8 13 1013.7 - 0.0
25/03:00pm 29.5 27.4 11.1 32 10.7 E 13 22 7 12 1013.9 1012.9 0.0
25/02:30pm 29.2 26.8 11.3 33 10.4 E 15 24 8 13 1014.3 - 0.0
25/02:00pm 28.9 26.9 11.5 34 10.2 ESE 13 22 7 12 1014.6 - 0.0
25/01:30pm 29.2 27.0 12.2 35 10.0 E 15 26 8 14 1015.0 - 0.0
25/01:00pm 28.4 25.6 11.5 35 9.8 E 17 28 9 15 1015.6 - 0.0
25/12:30pm 28.1 25.5 12.0 36 9.4 SE 17 28 9 15 1016.1 - 0.0
25/12:00pm 27.6 25.1 12.4 39 8.9 E 17 28 9 15 1016.6 1015.6 0.0
25/11:30am 26.9 23.9 12.5 40 8.5 ESE 20 30 11 16 1017.0 - 0.0
25/11:00am 26.3 23.3 12.4 42 8.1 ESE 20 32 11 17 1017.3 - 0.0
25/10:30am 25.8 21.8 11.9 42 8.1 ESE 24 33 13 18 1017.6 - 0.0
25/10:00am 25.5 22.2 11.7 42 8.0 ESE 20 37 11 20 1017.7 - 0.0
25/09:30am 25.0 21.9 11.6 43 7.7 E 19 30 10 16 1017.8 - 0.0
25/09:00am 23.9 22.5 12.2 48 6.7 SE 11 17 6 9 1017.6 1016.6 0.0
25/08:30am 22.9 22.5 13.1 54 5.7 ESE 7 15 4 8 1017.3 - 0.0
25/08:00am 21.0 21.2 14.2 65 4.0 ESE 6 9 3 5 1017.2 - 0.0
25/07:30am 18.1 19.5 14.4 79 2.2 CALM 0 0 0 0 1017.0 - 0.0
25/07:00am 18.4 18.4 13.5 73 2.8 E 6 7 3 4 1016.7 - 0.0
25/06:30am 19.6 19.2 14.0 70 3.3 SE 9 13 5 7 1016.5 - 0.0
25/06:00am 18.5 18.7 14.8 79 2.2 SSE 7 11 4 6 1016.3 1015.3 0.0
25/05:30am 18.7 18.7 15.2 80 2.1 S 9 13 5 7 1016.0 - 0.0
25/05:00am 18.4 18.4 15.3 82 1.8 S 9 11 5 6 1015.8 - 0.0
25/04:30am 18.4 18.3 14.9 80 2.1 S 9 13 5 7 1015.6 - 0.0
25/04:00am 18.7 18.5 14.6 77 2.4 S 9 15 5 8 1015.4 - 0.0
25/03:30am 18.9 17.8 14.4 75 2.6 S 13 15 7 8 1015.2 - 0.0
25/03:00am 18.7 18.9 14.6 77 2.4 S 7 11 4 6 1015.1 1014.1 0.0
25/02:30am 18.5 18.7 14.6 78 2.3 S 7 11 4 6 1015.1 - 0.0
25/02:00am 18.6 18.5 14.9 79 2.2 SSW 9 13 5 7 1015.2 - 0.0
25/01:30am 19.0 19.3 15.1 78 2.3 SSW 7 9 4 5 1015.4 - 0.0
25/01:00am 18.6 18.8 15.7 83 1.7 SSW 9 11 5 6 1015.4 - 0.0
25/12:30am 17.7 19.1 15.5 87 1.3 S 2 7 1 4 1015.4 - 0.0
25/12:00am 18.5 20.4 15.7 84 1.7 CALM 0 0 0 0 1015.5 1014.5 0.0
 
Date/Time
EST
Temp
°C
App
Temp
°C
Dew
Point
°C
Rel
Hum
%
Delta-T
°C
Wind Press
QNH
hPa
Press
MSL
hPa
Rain since
9am
mm
Dir  Spd
km/h
Gust
km/h
Spd
kts
Gust
kts
24/11:30pm 18.9 20.5 15.9 83 1.8 S 2 6 1 3 1015.4 - 0.0
24/11:00pm 19.2 20.0 15.9 81 2.0 SSW 6 7 3 4 1015.5 - 0.0
24/10:30pm 19.4 20.1 15.5 78 2.3 S 6 7 3 4 1015.6 - 0.0
24/10:00pm 19.8 20.4 15.4 76 2.6 S 6 9 3 5 1015.7 - 0.0
24/09:30pm 21.1 22.3 15.0 68 3.6 SSE 2 7 1 4 1015.6 - 0.0
24/09:00pm 20.6 21.9 16.2 76 2.7 ESE 4 7 2 4 1015.4 1014.4 0.0
24/08:30pm 20.7 22.7 15.9 74 2.9 CALM 0 0 0 0 1015.3 - 0.0
24/08:00pm 22.1 22.8 15.5 66 4.0 E 6 7 3 4 1015.0 - 0.0
24/07:30pm 23.7 24.1 14.7 57 5.4 E 6 7 3 4 1014.8 - 0.0
24/07:00pm 25.3 25.3 14.1 50 6.7 ESE 7 9 4 5 1014.5 - 0.0
24/06:30pm 26.3 25.8 13.8 46 7.5 ESE 9 13 5 7 1014.2 - 0.0
24/06:00pm 28.0 27.8 13.1 39 8.9 SE 6 9 3 5 1013.9 1012.9 0.0

Other Formats:

Comma delimited format used in spreadsheet applications
http://www.bom.gov.au/fwo/IDQ60801/IDQ60801.94274.axf

JavaScript Object Notation format (JSON) in row-major order
http://www.bom.gov.au/fwo/IDQ60801/IDQ60801.94274.json